You are not logged in, Click here to log in
ICAO: EPWA Country: 波蘭共和國首都華沙奧肯切區的國際機場
Latitude: 52.1657 Longitude: 20.9671
Total Arrivals: 3 Total Departures: 2
Latest Arrival: CMGEL3 (EDLW-EPWA)Stone. Chang Latest Departure: SU2001 (EPWA-UUEE)Arthur. Kung
Scenery:
METAR : EPWA 241100Z 33007KT 260V030 9999 BKN037 20/11 Q1012 NOSIG

華沙蕭邦機場WAW